createdAt,value
2022-11-13T00:02:42.345Z,3.20
2022-11-13T00:13:02.930Z,3.20
2022-11-13T00:23:23.711Z,3.30
2022-11-13T00:44:24.517Z,3.30
2022-11-13T00:54:45.073Z,3.50
2022-11-13T01:05:06.114Z,3.20
2022-11-13T01:15:27.382Z,3.20
2022-11-13T01:25:47.757Z,3.40
2022-11-13T01:36:12.574Z,3.40
2022-11-13T01:46:35.400Z,3.00
2022-11-13T01:56:58.345Z,3.20
2022-11-13T02:07:21.641Z,3.20
2022-11-13T02:17:59.156Z,3.20
2022-11-13T02:28:19.681Z,3.20
2022-11-13T02:38:42.085Z,3.10
2022-11-13T02:49:02.358Z,3.20
2022-11-13T02:59:23.022Z,3.10
2022-11-13T03:09:43.777Z,3.30
2022-11-13T03:20:05.660Z,3.10
2022-11-13T03:30:27.601Z,3.10
2022-11-13T03:40:48.705Z,3.00
2022-11-13T03:51:09.296Z,2.90
2022-11-13T04:01:29.886Z,3.00
2022-11-13T04:11:50.496Z,2.90
2022-11-13T04:22:11.041Z,2.80
2022-11-13T04:32:32.525Z,2.80
2022-11-13T04:42:53.168Z,2.90
2022-11-13T04:53:13.920Z,2.80
2022-11-13T05:03:34.490Z,2.60
2022-11-13T05:13:58.328Z,2.50
2022-11-13T05:24:20.997Z,2.50
2022-11-13T05:34:41.630Z,2.60
2022-11-13T05:45:02.338Z,2.80
2022-11-13T05:55:23.605Z,2.70
2022-11-13T06:05:44.294Z,2.80
2022-11-13T06:16:09.839Z,2.90
2022-11-13T06:26:33.073Z,3.10
2022-11-13T06:36:53.685Z,3.00
2022-11-13T06:47:14.159Z,3.60
2022-11-13T06:57:34.362Z,3.20
2022-11-13T07:07:55.004Z,3.10
2022-11-13T07:18:18.992Z,3.20
2022-11-13T07:28:41.658Z,3.30
2022-11-13T07:39:02.364Z,3.40
2022-11-13T07:49:22.823Z,3.40
2022-11-13T07:59:43.436Z,3.50
2022-11-13T08:10:04.448Z,3.60
2022-11-13T08:20:26.451Z,3.70
2022-11-13T08:30:47.082Z,3.80
2022-11-13T08:41:09.652Z,4.10
2022-11-13T08:51:29.969Z,4.40
2022-11-13T09:01:50.908Z,4.50
2022-11-13T09:12:11.215Z,4.60
2022-11-13T09:22:31.782Z,4.90
2022-11-13T09:32:57.212Z,5.00
2022-11-13T09:43:39.244Z,5.30
2022-11-13T09:54:06.518Z,5.60
2022-11-13T10:04:53.019Z,6.40
2022-11-13T10:15:14.336Z,6.40
2022-11-13T10:25:37.908Z,6.60
2022-11-13T10:36:07.132Z,7.10
2022-11-13T10:46:29.515Z,7.60
2022-11-13T10:57:19.142Z,8.40
2022-11-13T11:07:40.659Z,8.80
2022-11-13T11:18:04.875Z,9.30
2022-11-13T11:29:03.765Z,9.80
2022-11-13T11:40:16.062Z,10.00
2022-11-13T11:51:00.647Z,10.20
2022-11-13T12:01:21.000Z,10.40
2022-11-13T12:12:21.290Z,10.60
2022-11-13T12:22:53.376Z,10.60
2022-11-13T12:33:34.703Z,10.80
2022-11-13T12:44:13.228Z,10.90
2022-11-13T12:54:35.915Z,11.10
2022-11-13T13:05:10.541Z,11.10
2022-11-13T13:15:40.777Z,11.10
2022-11-13T13:26:05.987Z,11.10
2022-11-13T13:36:40.925Z,11.10
2022-11-13T13:47:07.932Z,11.00
2022-11-13T13:57:29.304Z,10.80
2022-11-13T14:07:49.749Z,10.50
2022-11-13T14:18:15.144Z,10.20
2022-11-13T14:28:49.705Z,9.90
2022-11-13T14:39:30.507Z,9.60
2022-11-13T14:49:51.390Z,9.30
2022-11-13T15:00:16.033Z,8.90
2022-11-13T15:10:37.733Z,8.50
2022-11-13T15:20:58.306Z,8.20
2022-11-13T15:31:20.314Z,7.90
2022-11-13T15:41:41.364Z,7.70
2022-11-13T15:52:02.027Z,7.40
2022-11-13T16:02:22.561Z,7.00
2022-11-13T16:12:42.945Z,6.70
2022-11-13T16:23:03.539Z,6.30
2022-11-13T16:33:24.366Z,6.00
2022-11-13T16:43:45.481Z,5.30
2022-11-13T16:54:07.336Z,5.20
2022-11-13T17:04:28.419Z,4.80
2022-11-13T17:14:48.849Z,4.80
2022-11-13T17:25:10.013Z,4.90
2022-11-13T17:35:30.388Z,4.80
2022-11-13T17:45:51.657Z,4.70
2022-11-13T17:56:13.646Z,4.50
2022-11-13T18:06:34.095Z,4.60
2022-11-13T18:16:54.643Z,4.60
2022-11-13T18:27:15.582Z,4.60
2022-11-13T18:37:36.446Z,4.50
2022-11-13T18:47:56.871Z,4.40
2022-11-13T18:58:17.816Z,4.50
2022-11-13T19:08:40.848Z,4.50
2022-11-13T19:19:07.101Z,4.50
2022-11-13T19:29:27.793Z,4.40
2022-11-13T19:39:49.058Z,4.50
2022-11-13T19:50:09.792Z,4.50
2022-11-13T20:00:30.550Z,4.60
2022-11-13T20:10:51.384Z,4.60
2022-11-13T20:21:12.452Z,4.60
2022-11-13T20:31:32.871Z,4.60
2022-11-13T20:41:53.437Z,4.70
2022-11-13T20:52:14.044Z,4.70
2022-11-13T21:02:34.585Z,4.60
2022-11-13T21:12:55.464Z,4.60
2022-11-13T21:23:15.822Z,4.50
2022-11-13T21:33:46.053Z,4.50
2022-11-13T21:44:08.651Z,4.60
2022-11-13T21:54:29.420Z,4.50
2022-11-13T22:04:49.863Z,4.40
2022-11-13T22:15:11.194Z,4.30
2022-11-13T22:25:31.592Z,4.30
2022-11-13T22:35:52.213Z,4.30
2022-11-13T22:46:15.707Z,4.30
2022-11-13T22:56:38.284Z,4.30
2022-11-13T23:06:58.678Z,4.30
2022-11-13T23:17:19.454Z,4.40
2022-11-13T23:27:39.994Z,4.40
2022-11-13T23:38:00.613Z,4.40
2022-11-13T23:48:21.309Z,4.20
2022-11-13T23:58:41.994Z,4.20
